RIPO2: Cimarron River Near Ripley, OK

                                SHEF ID:       RIPO2     Cimarron River near Ripley, OK
STATION TYPE:
Regulating: Stage = 20.00, Flow = 33370

PRECIP ELEVATION STAGE RIV-FLOW AIR-TEMP WIND-DIRWIND-SPEED REL-HUMID VOLTAGE BAT-LOAD
in ft ft cfs F deg mph % volt volt
Ccp-Rev Ccp-Rev Ccp-Rev Ccp-Rev Ccp-Rev Ccp-Rev Ccp-Rev Ccp-Rev Ccp-Rev Ccp-Rev
(America/Chicago)
05/05 00:00 0.00 ---- 7.10 292 165.38 ---- ---- ---- ---- 12.67
05/05 01:00 0.00 ---- 7.13 302 163.76 ---- ---- ---- ---- 12.61
05/05 02:00 0.00 ---- 7.14 305 161.42 ---- ---- ---- ---- 12.57
05/05 03:00 0.00 ---- 7.14 305 158.54 ---- ---- ---- ---- 12.57
05/05 04:00 0.00 ---- 7.13 302 156.02 ---- ---- ---- ---- 12.57
05/05 05:00 0.00 ---- 7.12 298 153.86 ---- ---- ---- ---- 12.54
05/05 06:00 0.00 ---- 7.12 298 151.70 ---- ---- ---- ---- 12.53
05/05 07:00 0.00 ---- 7.12 298 152.42 ---- ---- ---- ---- 12.50
05/05 08:00 0.00 ---- 7.12 298 155.48 ---- ---- ---- ---- 12.49
05/05 09:00 0.00 ---- 7.12 298 156.38 ---- ---- ---- ---- 12.83
05/05 10:00 0.00 ---- 7.07 282 149.54 ---- ---- ---- ---- 13.18
05/05 11:00 0.00 ---- 7.06 279 138.74 ---- ---- ---- ---- 13.20
05/05 12:00 0.00 ---- 7.04 273 136.22 ---- ---- ---- ---- 13.30
05/05 13:00 0.00 ---- 7.04 273 135.14 ---- ---- ---- ---- 13.62
05/05 14:00 0.00 ---- 7.08 285 134.24 ---- ---- ---- ---- 13.57
05/05 15:00 0.00 ---- 7.14 305 134.24 ---- ---- ---- ---- 13.55
05/05 16:00 0.00 ---- 7.10 292 133.34 ---- ---- ---- ---- 13.54
05/05 17:00 0.00 ---- 7.12 298 131.72 ---- ---- ---- ---- 13.53
05/05 18:00 0.00 ---- 7.11 295 129.38 ---- ---- ---- ---- 13.55
05/05 19:00 0.00 ---- 7.12 298 126.32 ---- ---- ---- ---- 13.52
05/05 20:00 0.00 ---- 7.11 295 123.98 ---- ---- ---- ---- 13.38
05/05 21:00 0.00 ---- 7.11 295 123.80 ---- ---- ---- ---- 13.16
05/05 22:00 0.00 ---- 7.11 295 123.62 ---- ---- ---- ---- 13.00
05/05 23:00 0.00 ---- 7.11 295 123.80 ---- ---- ---- ---- 12.86
Data processed at Wed 06May2026 04:02 GMT

NOTICE: If you are parsing this page

Please convert to using our Data API. Starting early 2026 we will be migrating to: https://water.usace.army.mil with modern pages rendered in JavaScript. When this migration completes you will no longer be able to scrape this page! CWMSDataAPI (CDA)

Timeseries IDs (TSIDs)

TSIDs used from left to right in the data table
RIPL.Precip-Inc.Total.1Hour.1Hour.Ccp-Rev
RIPL.Stage.Inst.1Hour.0.Ccp-Rev
RIPL.Flow.Inst.1Hour.0.Ccp-Rev
RIPL.Temp-Air.Inst.1Hour.0.Ccp-Rev
RIPL.Dir-Wind.Inst.1Hour.0.Ccp-Rev
RIPL.Speed-Wind.Inst.1Hour.0.Ccp-Rev
RIPL.%-Humidity.Inst.1Hour.0.Ccp-Rev
RIPL.Volt-Battery.Inst.1Hour.0.Ccp-Rev
RIPL.Volt-Battery Load.Inst.1Hour.0.Ccp-Rev

                            

All information presented herein is the property of the government of the United States of America and may be revised or deleted at any time without prior notice. Dissemination of this information without the expressed written consent of the Public Affairs Office, Tulsa District U.S. Army Corps of Engineers is strictly prohibited. These data are gathered electronically and, as presented, have NOT undergone any form of quality control. These data are NOT guaranteed to be valid or correct.